createdAt,value
2019-02-22T00:02:06.141Z,61.50
2019-02-22T00:04:35.570Z,54.97
2019-02-22T00:07:04.990Z,58.17
2019-02-22T00:09:34.396Z,59.35
2019-02-22T00:12:04.410Z,49.10
2019-02-22T00:14:35.236Z,54.40
2019-02-22T00:17:10.551Z,53.63
2019-02-22T00:19:39.905Z,49.60
2019-02-22T00:22:10.067Z,57.17
2019-02-22T00:24:39.423Z,53.83
2019-02-22T00:27:09.628Z,55.37
2019-02-22T00:29:39.026Z,56.03
2019-02-22T00:32:08.406Z,62.70
2019-02-22T00:34:38.281Z,59.83
2019-02-22T00:37:07.865Z,58.20
2019-02-22T00:39:37.398Z,54.50
2019-02-22T00:42:06.842Z,51.30
2019-02-22T00:44:37.872Z,53.50
2019-02-22T00:47:07.444Z,64.10
2019-02-22T00:49:41.108Z,58.40
2019-02-22T00:52:12.300Z,57.87
2019-02-22T00:54:42.082Z,61.00
2019-02-22T00:57:11.512Z,63.60
2019-02-22T00:59:40.934Z,55.00
2019-02-22T01:02:11.179Z,55.75
2019-02-22T01:04:40.592Z,50.00
2019-02-22T01:07:10.479Z,57.13
2019-02-22T01:09:41.851Z,62.93
2019-02-22T01:12:14.766Z,57.95
2019-02-22T01:14:44.384Z,58.80
2019-02-22T01:17:15.346Z,53.83
2019-02-22T01:19:45.197Z,61.73
2019-02-22T01:22:22.837Z,54.48
2019-02-22T01:24:52.189Z,51.73
2019-02-22T01:27:21.641Z,58.40
2019-02-22T01:29:53.104Z,48.57
2019-02-22T01:32:24.839Z,51.85
2019-02-22T01:34:59.935Z,48.93
2019-02-22T01:37:31.254Z,48.85
2019-02-22T01:40:06.054Z,53.07
2019-02-22T01:42:36.578Z,52.30
2019-02-22T01:45:07.716Z,51.63
2019-02-22T01:47:38.220Z,57.75
2019-02-22T01:50:08.819Z,56.30
2019-02-22T01:52:38.179Z,62.70
2019-02-22T01:55:07.745Z,61.20
2019-02-22T01:57:39.346Z,65.23
2019-02-22T02:00:11.293Z,68.00
2019-02-22T02:02:40.760Z,72.03
2019-02-22T02:05:10.209Z,72.87
2019-02-22T02:07:39.597Z,69.97
2019-02-22T02:10:09.017Z,69.93
2019-02-22T02:12:38.447Z,65.47
2019-02-22T02:15:08.794Z,69.17
2019-02-22T02:17:41.475Z,70.70
2019-02-22T02:20:11.745Z,66.33
2019-02-22T02:22:41.106Z,66.07
2019-02-22T02:25:11.457Z,79.33
2019-02-22T02:27:42.888Z,74.23
2019-02-22T02:30:13.396Z,72.67
2019-02-22T02:32:43.775Z,76.07
2019-02-22T02:35:18.215Z,76.37
2019-02-22T02:37:50.062Z,68.87
2019-02-22T02:40:21.852Z,62.47
2019-02-22T02:42:51.298Z,66.90
2019-02-22T02:45:21.259Z,62.23
2019-02-22T02:47:50.633Z,66.10
2019-02-22T02:50:20.972Z,61.18
2019-02-22T02:52:50.369Z,66.93
2019-02-22T02:55:36.069Z,79.47
2019-02-22T02:58:05.763Z,62.50
2019-02-22T03:00:39.490Z,67.87
2019-02-22T03:03:08.892Z,69.00
2019-02-22T03:06:11.659Z,71.50
2019-02-22T03:08:41.075Z,69.50
2019-02-22T03:11:20.166Z,69.27
2019-02-22T03:13:41.537Z,63.50
2019-02-22T03:16:10.956Z,67.00
2019-02-22T03:18:40.336Z,71.80
2019-02-22T03:21:09.777Z,61.33
2019-02-22T03:23:39.896Z,65.47
2019-02-22T03:26:09.869Z,66.30
2019-02-22T03:28:42.932Z,72.13
2019-02-22T03:31:12.411Z,78.13
2019-02-22T03:33:42.214Z,72.83
2019-02-22T03:36:13.692Z,74.00
2019-02-22T03:38:45.635Z,76.17
2019-02-22T03:41:16.837Z,77.82
2019-02-22T03:43:46.809Z,82.30
2019-02-22T03:46:17.048Z,82.40
2019-02-22T03:48:47.541Z,85.13
2019-02-22T03:51:21.279Z,90.67
2019-02-22T03:53:57.255Z,91.17
2019-02-22T03:56:26.546Z,94.20
2019-02-22T03:58:56.364Z,89.57
2019-02-22T04:01:25.795Z,103.37
2019-02-22T04:03:55.204Z,95.83
2019-02-22T04:06:24.629Z,100.53
2019-02-22T04:08:55.780Z,95.27
2019-02-22T04:11:25.149Z,111.85
2019-02-22T04:13:54.624Z,101.50
2019-02-22T04:16:27.468Z,109.87
2019-02-22T04:18:57.610Z,98.73
2019-02-22T04:21:29.083Z,112.00
2019-02-22T04:23:59.828Z,107.67
2019-02-22T04:26:34.538Z,108.50
2019-02-22T04:29:06.480Z,117.60
2019-02-22T04:31:36.965Z,111.70
2019-02-22T04:34:06.410Z,112.37
2019-02-22T04:36:36.814Z,107.13
2019-02-22T04:39:08.816Z,111.03
2019-02-22T04:41:39.927Z,114.03
2019-02-22T04:44:09.617Z,108.33
2019-02-22T04:46:39.983Z,106.10
2019-02-22T04:49:09.326Z,109.20
2019-02-22T04:51:43.546Z,100.47
2019-02-22T04:54:16.088Z,108.60
2019-02-22T04:56:46.333Z,115.00
2019-02-22T04:59:17.398Z,115.03
2019-02-22T05:01:51.477Z,121.60
2019-02-22T05:04:20.914Z,116.77
2019-02-22T05:06:50.715Z,116.47
2019-02-22T05:09:20.118Z,113.47
2019-02-22T05:11:49.530Z,102.20
2019-02-22T05:14:19.202Z,110.90
2019-02-22T05:16:48.602Z,99.80
2019-02-22T05:19:22.183Z,99.58
2019-02-22T05:21:52.240Z,102.93
2019-02-22T05:24:21.854Z,111.72
2019-02-22T05:26:51.241Z,114.37
2019-02-22T05:29:21.781Z,96.03
2019-02-22T05:31:51.194Z,101.42
2019-02-22T05:34:20.574Z,104.97
2019-02-22T05:36:52.526Z,109.33
2019-02-22T05:39:22.117Z,113.68
2019-02-22T05:41:51.864Z,117.03
2019-02-22T05:44:23.108Z,116.50
2019-02-22T05:47:00.266Z,123.30
2019-02-22T05:49:25.738Z,139.33
2019-02-22T05:51:55.272Z,139.15
2019-02-22T05:54:24.683Z,135.57
2019-02-22T05:56:55.517Z,147.30
2019-02-22T05:59:25.457Z,135.00
2019-02-22T06:01:54.833Z,138.23
2019-02-22T06:04:24.349Z,142.23
2019-02-22T06:06:53.880Z,136.17
2019-02-22T06:09:23.461Z,132.37
2019-02-22T06:11:53.229Z,144.80
2019-02-22T06:14:22.705Z,139.50
2019-02-22T06:16:52.103Z,141.63
2019-02-22T06:19:22.785Z,132.52
2019-02-22T06:21:52.282Z,148.32
2019-02-22T06:24:21.694Z,143.13
2019-02-22T06:26:54.956Z,141.80
2019-02-22T06:29:25.254Z,144.80
2019-02-22T06:31:55.047Z,147.23
2019-02-22T06:34:27.718Z,141.03
2019-02-22T06:37:02.192Z,154.47
2019-02-22T06:39:31.780Z,139.17
2019-02-22T06:42:01.094Z,133.50
2019-02-22T06:44:30.786Z,143.10
2019-02-22T06:47:00.185Z,130.57
2019-02-22T06:49:31.100Z,131.77
2019-02-22T06:52:00.897Z,134.27
2019-02-22T06:54:30.291Z,127.70
2019-02-22T06:57:01.037Z,127.03
2019-02-22T06:59:30.782Z,123.77
2019-02-22T07:02:00.178Z,118.30
2019-02-22T07:04:29.582Z,119.00
2019-02-22T07:06:59.010Z,114.03
2019-02-22T07:09:28.390Z,122.13
2019-02-22T07:12:01.401Z,113.13
2019-02-22T07:14:32.037Z,119.97
2019-02-22T07:17:04.600Z,115.27
2019-02-22T07:19:33.969Z,119.87
2019-02-22T07:22:03.392Z,120.93
2019-02-22T07:24:32.773Z,110.30
2019-02-22T07:27:02.282Z,110.45
2019-02-22T07:29:31.693Z,111.63
2019-02-22T07:32:06.686Z,108.70
2019-02-22T07:34:36.081Z,115.97
2019-02-22T07:37:08.915Z,115.13
2019-02-22T07:39:38.271Z,118.80
2019-02-22T07:42:07.809Z,119.23
2019-02-22T07:44:37.236Z,129.30
2019-02-22T07:47:06.617Z,119.10
2019-02-22T07:49:36.002Z,122.85
2019-02-22T07:52:05.637Z,127.13
2019-02-22T07:54:36.042Z,128.62
2019-02-22T07:57:07.837Z,125.10
2019-02-22T07:59:37.889Z,118.57
2019-02-22T08:02:14.816Z,145.60
2019-02-22T08:04:49.315Z,131.23
2019-02-22T08:07:18.807Z,125.37
2019-02-22T08:09:49.619Z,135.90
2019-02-22T08:12:25.112Z,135.57
2019-02-22T08:14:55.531Z,134.60
2019-02-22T08:17:32.619Z,133.47
2019-02-22T08:20:02.409Z,133.67
2019-02-22T08:22:31.842Z,127.82
2019-02-22T08:25:01.247Z,133.30
2019-02-22T08:27:33.825Z,120.03
2019-02-22T08:30:03.680Z,126.73
2019-02-22T08:32:33.068Z,115.53
2019-02-22T08:35:03.023Z,115.97
2019-02-22T08:37:32.474Z,100.90
2019-02-22T08:40:02.614Z,109.67
2019-02-22T08:42:32.041Z,100.78
2019-02-22T08:45:03.394Z,101.47
2019-02-22T08:47:33.001Z,103.17
2019-02-22T08:50:02.386Z,103.57
2019-02-22T08:52:33.442Z,96.90
2019-02-22T08:55:03.365Z,95.87
2019-02-22T08:57:36.289Z,95.30
2019-02-22T09:00:09.509Z,95.65
2019-02-22T09:02:39.023Z,110.67
2019-02-22T09:05:09.965Z,100.60
2019-02-22T09:07:40.269Z,97.07
2019-02-22T09:10:10.585Z,108.10
2019-02-22T09:12:41.151Z,87.67
2019-02-22T09:15:10.970Z,89.77
2019-02-22T09:17:40.373Z,96.40
2019-02-22T09:20:10.056Z,102.97
2019-02-22T09:22:39.582Z,97.87
2019-02-22T09:25:08.981Z,99.28
2019-02-22T09:27:38.372Z,94.33
2019-02-22T09:30:09.355Z,103.83
2019-02-22T09:32:39.865Z,93.37
2019-02-22T09:35:10.285Z,102.87
2019-02-22T09:37:39.751Z,107.73
2019-02-22T09:40:10.600Z,104.55
2019-02-22T09:42:39.981Z,91.93
2019-02-22T09:45:10.785Z,109.30
2019-02-22T09:47:40.971Z,98.60
2019-02-22T09:50:11.874Z,94.60
2019-02-22T09:52:43.319Z,90.10
2019-02-22T09:55:12.936Z,94.30
2019-02-22T09:57:42.516Z,90.57
2019-02-22T10:00:17.244Z,90.37
2019-02-22T10:02:48.295Z,79.00
2019-02-22T10:05:25.878Z,77.75
2019-02-22T10:08:02.499Z,82.27
2019-02-22T10:10:35.646Z,74.70
2019-02-22T10:13:05.017Z,87.40
2019-02-22T10:15:34.852Z,79.15
2019-02-22T10:18:04.237Z,73.93
2019-02-22T10:20:41.775Z,82.00
2019-02-22T10:23:11.353Z,74.13
2019-02-22T10:25:50.636Z,81.60
2019-02-22T10:28:21.493Z,73.47
2019-02-22T10:30:52.278Z,74.37
2019-02-22T10:33:21.730Z,79.82
2019-02-22T10:35:56.346Z,72.53
2019-02-22T10:38:25.748Z,74.70
2019-02-22T10:40:55.150Z,69.12
2019-02-22T10:43:24.535Z,74.47
2019-02-22T10:45:54.690Z,68.40
2019-02-22T10:48:24.041Z,70.32
2019-02-22T10:50:53.595Z,71.53
2019-02-22T10:53:24.567Z,65.40
2019-02-22T10:55:58.710Z,63.73
2019-02-22T10:58:30.339Z,64.10
2019-02-22T11:01:00.435Z,64.17
2019-02-22T11:03:29.797Z,66.40
2019-02-22T11:05:59.264Z,66.67
2019-02-22T11:08:28.694Z,59.97
2019-02-22T11:10:58.484Z,59.30
2019-02-22T11:13:29.551Z,59.23
2019-02-22T11:15:58.969Z,62.30
2019-02-22T11:18:29.653Z,57.07
2019-02-22T11:20:59.100Z,65.90
2019-02-22T11:23:29.555Z,58.50
2019-02-22T11:25:59.978Z,60.43
2019-02-22T11:28:31.937Z,59.67
2019-02-22T11:31:01.369Z,61.23
2019-02-22T11:33:30.751Z,57.47
2019-02-22T11:36:03.907Z,54.47
2019-02-22T11:38:33.792Z,53.30
2019-02-22T11:41:03.464Z,58.43
2019-02-22T11:43:33.057Z,57.87
2019-02-22T11:46:05.101Z,57.57
2019-02-22T11:48:38.904Z,56.65
2019-02-22T11:51:08.628Z,54.30
2019-02-22T11:53:38.656Z,52.30
2019-02-22T11:56:08.063Z,53.43
2019-02-22T11:58:37.480Z,50.20
2019-02-22T12:01:09.238Z,49.50
2019-02-22T12:03:40.805Z,48.60
2019-02-22T12:06:13.834Z,50.73
2019-02-22T12:08:43.463Z,46.47
2019-02-22T12:11:15.996Z,46.87
2019-02-22T12:13:49.666Z,48.63
2019-02-22T12:16:19.519Z,42.53
2019-02-22T12:18:52.767Z,46.83
2019-02-22T12:21:23.149Z,43.00
2019-02-22T12:23:55.562Z,42.67
2019-02-22T12:26:31.967Z,39.47
2019-02-22T12:29:06.748Z,40.95
2019-02-22T12:31:36.359Z,35.70
2019-02-22T12:34:05.923Z,39.13
2019-02-22T12:36:41.124Z,37.25
2019-02-22T12:39:12.598Z,36.50
2019-02-22T12:41:43.967Z,35.77
2019-02-22T12:44:15.459Z,38.13
2019-02-22T12:46:46.362Z,36.93
2019-02-22T12:49:17.270Z,35.48
2019-02-22T12:51:46.661Z,35.03
2019-02-22T12:54:18.053Z,37.15
2019-02-22T12:56:57.373Z,38.47
2019-02-22T12:59:18.492Z,37.83
2019-02-22T13:01:47.913Z,35.47
2019-02-22T13:04:18.117Z,32.87
2019-02-22T13:06:51.017Z,36.87
2019-02-22T13:09:21.812Z,37.83
2019-02-22T13:11:51.221Z,45.45
2019-02-22T13:14:20.603Z,40.80
2019-02-22T13:16:50.012Z,40.00
2019-02-22T13:19:19.473Z,40.70
2019-02-22T13:21:49.404Z,38.97
2019-02-22T13:24:18.923Z,39.43
2019-02-22T13:26:48.323Z,33.10
2019-02-22T13:29:18.078Z,32.07
2019-02-22T13:31:48.653Z,34.10
2019-02-22T13:34:19.548Z,36.03
2019-02-22T13:36:54.478Z,32.80
2019-02-22T13:39:25.879Z,30.90
2019-02-22T13:41:55.503Z,34.37
2019-02-22T13:44:26.593Z,27.53
2019-02-22T13:46:56.616Z,24.20
2019-02-22T13:49:26.009Z,26.43
2019-02-22T13:51:55.506Z,22.20
2019-02-22T13:54:25.265Z,24.87
2019-02-22T13:56:59.502Z,27.00
2019-02-22T13:59:28.817Z,24.43
2019-02-22T14:02:00.595Z,25.80
2019-02-22T14:04:30.008Z,23.63
2019-02-22T14:06:59.466Z,21.80
2019-02-22T14:09:28.967Z,27.83
2019-02-22T14:11:59.052Z,26.73
2019-02-22T14:14:30.625Z,27.73
2019-02-22T14:17:00.362Z,27.90
2019-02-22T14:19:29.761Z,30.00
2019-02-22T14:21:59.433Z,30.45
2019-02-22T14:24:29.196Z,26.60
2019-02-22T14:26:59.501Z,32.33
2019-02-22T14:29:28.889Z,28.13
2019-02-22T14:31:58.297Z,27.00
2019-02-22T14:34:29.283Z,22.47
2019-02-22T14:37:01.001Z,22.20
2019-02-22T14:39:32.978Z,18.50
2019-02-22T14:42:02.289Z,19.37
2019-02-22T14:44:31.683Z,17.47
2019-02-22T14:47:01.101Z,18.57
2019-02-22T14:49:30.509Z,22.80
2019-02-22T14:51:59.892Z,22.87
2019-02-22T14:54:29.317Z,23.33
2019-02-22T14:56:59.416Z,36.33
2019-02-22T14:59:33.965Z,31.80
2019-02-22T15:02:04.519Z,30.57
2019-02-22T15:04:36.181Z,55.90
2019-02-22T15:07:06.633Z,67.10
2019-02-22T15:09:36.089Z,49.50
2019-02-22T15:12:05.917Z,31.77
2019-02-22T15:14:37.087Z,36.23
2019-02-22T15:17:27.885Z,23.93
2019-02-22T15:20:00.664Z,22.20
2019-02-22T15:22:33.507Z,17.73
2019-02-22T15:25:08.910Z,23.97
2019-02-22T15:27:41.700Z,33.00
2019-02-22T15:30:11.641Z,21.13
2019-02-22T15:32:42.211Z,17.70
2019-02-22T15:35:14.994Z,16.57
2019-02-22T15:37:46.474Z,19.70
2019-02-22T15:40:19.830Z,15.90
2019-02-22T15:42:49.298Z,14.27
2019-02-22T15:45:21.335Z,15.00
2019-02-22T15:47:55.190Z,17.43
2019-02-22T15:50:25.977Z,19.77
2019-02-22T15:52:55.298Z,19.50
2019-02-22T15:55:24.761Z,18.67
2019-02-22T15:57:55.921Z,18.10
2019-02-22T16:00:27.297Z,19.43
2019-02-22T16:02:57.893Z,22.00
2019-02-22T16:05:31.276Z,22.53
2019-02-22T16:08:03.143Z,22.30
2019-02-22T16:10:35.062Z,21.47
2019-02-22T16:13:04.559Z,21.77
2019-02-22T16:15:36.272Z,24.12
2019-02-22T16:18:07.115Z,23.87
2019-02-22T16:20:37.570Z,25.07
2019-02-22T16:23:07.561Z,23.10
2019-02-22T16:25:37.309Z,21.80
2019-02-22T16:28:06.705Z,19.63
2019-02-22T16:30:37.837Z,18.17
2019-02-22T16:33:07.266Z,19.87
2019-02-22T16:35:36.797Z,17.77
2019-02-22T16:38:06.549Z,18.87
2019-02-22T16:40:36.715Z,17.13
2019-02-22T16:43:07.556Z,18.65
2019-02-22T16:45:40.971Z,19.40
2019-02-22T16:48:10.396Z,17.53
2019-02-22T16:50:39.770Z,15.53
2019-02-22T16:53:13.838Z,12.78
2019-02-22T16:55:46.705Z,13.62
2019-02-22T16:58:20.253Z,14.10
2019-02-22T17:00:49.698Z,10.43
2019-02-22T17:03:22.873Z,17.40
2019-02-22T17:05:52.441Z,57.77
2019-02-22T17:08:22.093Z,89.20
2019-02-22T17:10:54.304Z,80.33
2019-02-22T17:13:24.030Z,51.30
2019-02-22T17:15:56.462Z,40.03
2019-02-22T17:18:26.796Z,17.57
2019-02-22T17:20:56.213Z,17.03
2019-02-22T17:23:25.594Z,13.07
2019-02-22T17:26:02.491Z,10.93
2019-02-22T17:28:34.930Z,14.13
2019-02-22T17:31:04.347Z,13.07
2019-02-22T17:33:34.596Z,11.03
2019-02-22T17:36:03.996Z,10.80
2019-02-22T17:38:33.511Z,10.87
2019-02-22T17:41:03.972Z,12.43
2019-02-22T17:43:34.562Z,11.37
2019-02-22T17:46:04.226Z,11.43
2019-02-22T17:48:33.808Z,15.20
2019-02-22T17:51:05.764Z,11.30
2019-02-22T17:53:35.297Z,11.97
2019-02-22T17:56:11.265Z,13.70
2019-02-22T17:58:41.109Z,14.57
2019-02-22T18:01:10.596Z,10.60
2019-02-22T18:03:40.456Z,13.10
2019-02-22T18:06:10.534Z,14.37
2019-02-22T18:08:39.973Z,11.30
2019-02-22T18:11:09.421Z,13.90
2019-02-22T18:13:39.136Z,12.37
2019-02-22T18:16:08.704Z,12.80
2019-02-22T18:18:38.667Z,14.05
2019-02-22T18:21:08.173Z,13.80
2019-02-22T18:23:38.387Z,12.40
2019-02-22T18:26:08.038Z,14.30
2019-02-22T18:28:37.544Z,10.10
2019-02-22T18:31:06.942Z,13.57
2019-02-22T18:33:36.397Z,18.93
2019-02-22T18:36:06.766Z,10.10
2019-02-22T18:38:36.576Z,11.45
2019-02-22T18:41:06.385Z,13.10
2019-02-22T18:43:35.710Z,12.97
2019-02-22T18:46:05.101Z,9.10
2019-02-22T18:48:35.998Z,11.65
2019-02-22T18:51:05.378Z,10.10
2019-02-22T18:53:34.744Z,9.20
2019-02-22T18:56:04.184Z,8.85
2019-02-22T18:58:33.616Z,7.60
2019-02-22T19:01:03.845Z,6.53
2019-02-22T19:03:33.586Z,18.40
2019-02-22T19:06:03.519Z,17.67
2019-02-22T19:08:32.961Z,8.80
2019-02-22T19:11:02.369Z,10.70
2019-02-22T19:13:32.549Z,8.90
2019-02-22T19:16:02.012Z,14.60
2019-02-22T19:18:31.460Z,10.40
2019-02-22T19:21:01.729Z,10.27
2019-02-22T19:23:31.828Z,12.00
2019-02-22T19:26:01.357Z,13.33
2019-02-22T19:28:30.747Z,14.77
2019-02-22T19:31:01.021Z,13.60
2019-02-22T19:33:30.824Z,18.10
2019-02-22T19:36:00.242Z,16.95
2019-02-22T19:38:29.765Z,20.53
2019-02-22T19:40:59.200Z,15.80
2019-02-22T19:43:30.578Z,17.40
2019-02-22T19:45:59.932Z,14.90
2019-02-22T19:48:29.489Z,17.27
2019-02-22T19:50:59.884Z,18.30
2019-02-22T19:53:30.901Z,17.75
2019-02-22T19:56:00.551Z,17.17
2019-02-22T19:58:33.035Z,21.50
2019-02-22T20:01:03.762Z,17.20
2019-02-22T20:03:33.582Z,20.75
2019-02-22T20:06:02.969Z,17.07
2019-02-22T20:08:32.399Z,19.95
2019-02-22T20:11:01.823Z,16.93
2019-02-22T20:13:32.744Z,18.37
2019-02-22T20:16:02.145Z,21.60
2019-02-22T20:18:31.788Z,17.27
2019-02-22T20:21:01.320Z,17.67
2019-02-22T20:23:30.711Z,18.37
2019-02-22T20:26:00.957Z,20.03
2019-02-22T20:28:30.353Z,18.60
2019-02-22T20:30:59.745Z,20.50
2019-02-22T20:33:29.169Z,18.90
2019-02-22T20:36:00.828Z,24.10
2019-02-22T20:38:30.147Z,24.52
2019-02-22T20:40:59.668Z,20.37
2019-02-22T20:43:35.426Z,19.57
2019-02-22T20:46:07.339Z,21.03
2019-02-22T20:48:37.987Z,18.87
2019-02-22T20:51:07.453Z,20.23
2019-02-22T20:53:36.939Z,20.43
2019-02-22T20:56:07.656Z,19.30
2019-02-22T20:58:37.333Z,20.90
2019-02-22T21:01:14.510Z,20.23
2019-02-22T21:03:38.283Z,24.12
2019-02-22T21:06:08.248Z,20.23
2019-02-22T21:08:38.023Z,21.73
2019-02-22T21:11:07.520Z,22.43
2019-02-22T21:13:39.674Z,21.87
2019-02-22T21:16:09.014Z,21.83
2019-02-22T21:18:38.561Z,20.90
2019-02-22T21:21:08.041Z,20.37
2019-02-22T21:23:37.493Z,19.10
2019-02-22T21:26:07.696Z,21.33
2019-02-22T21:28:37.753Z,25.17
2019-02-22T21:31:09.573Z,20.82
2019-02-22T21:33:42.244Z,20.87
2019-02-22T21:36:13.927Z,21.80
2019-02-22T21:38:43.373Z,20.77
2019-02-22T21:41:13.108Z,19.90
2019-02-22T21:43:44.970Z,20.20
2019-02-22T21:46:18.068Z,24.20
2019-02-22T21:48:47.867Z,22.67
2019-02-22T21:51:18.306Z,21.82
2019-02-22T21:53:48.903Z,24.37
2019-02-22T21:56:20.265Z,26.93
2019-02-22T21:58:49.744Z,22.57
2019-02-22T22:01:19.138Z,24.50
2019-02-22T22:03:51.361Z,24.33
2019-02-22T22:06:20.826Z,25.80
2019-02-22T22:08:50.280Z,22.70
2019-02-22T22:11:19.686Z,23.67
2019-02-22T22:13:49.068Z,22.27
2019-02-22T22:16:18.469Z,33.70
2019-02-22T22:18:48.940Z,23.37
2019-02-22T22:21:20.851Z,22.63
2019-02-22T22:23:50.202Z,27.43
2019-02-22T22:26:21.026Z,24.30
2019-02-22T22:28:50.408Z,30.20
2019-02-22T22:31:19.787Z,24.80
2019-02-22T22:33:49.889Z,25.90
2019-02-22T22:36:19.870Z,25.07
2019-02-22T22:38:49.503Z,24.03
2019-02-22T22:41:20.786Z,22.63
2019-02-22T22:43:51.020Z,23.40
2019-02-22T22:46:20.417Z,24.27
2019-02-22T22:48:50.802Z,23.00
2019-02-22T22:51:20.658Z,22.90
2019-02-22T22:53:50.348Z,27.15
2019-02-22T22:56:21.177Z,23.43
2019-02-22T22:58:51.096Z,23.20
2019-02-22T23:01:24.739Z,23.85
2019-02-22T23:03:54.209Z,25.57
2019-02-22T23:06:23.693Z,25.33
2019-02-22T23:08:53.542Z,25.82
2019-02-22T23:11:23.324Z,25.25
2019-02-22T23:13:52.905Z,23.93
2019-02-22T23:16:22.312Z,24.50
2019-02-22T23:19:01.390Z,25.53
2019-02-22T23:21:24.312Z,24.92
2019-02-22T23:23:54.157Z,25.90
2019-02-22T23:26:23.594Z,23.55
2019-02-22T23:28:52.973Z,25.63
2019-02-22T23:31:22.934Z,28.70
2019-02-22T23:33:53.467Z,23.33
2019-02-22T23:36:22.822Z,21.67
2019-02-22T23:38:52.477Z,19.33
2019-02-22T23:41:21.920Z,25.40
2019-02-22T23:43:51.630Z,22.23
2019-02-22T23:46:21.857Z,22.82
2019-02-22T23:48:51.281Z,21.87
2019-02-22T23:51:20.661Z,18.87
2019-02-22T23:53:50.044Z,20.97
2019-02-22T23:56:20.277Z,20.60
2019-02-22T23:58:50.245Z,20.10
